Time;durP1;ratioP1;P1;durP2;ratioP2;P2;SDS_P1;SDS_P2;PMS_P1;PMS_P2;Temp;Humidity;BMP_temperature;BMP_pressure;BME280_temperature;BME280_humidity;BME280_pressure;Samples;Min_cycle;Max_cycle;Signal;HPM_P1;HPM_P2
2023/03/19 00:02:07;;;;;;;11.98;9.23;;;;;;;;;;4967785;28;20523;-67
2023/03/19 00:04:32;;;;;;;15.70;8.88;;;;;;;;;;4968817;28;20117;-65
2023/03/19 00:06:58;;;;;;;14.38;9.32;;;;;;;;;;4969485;28;20170;-67
2023/03/19 00:09:24;;;;;;;16.60;9.48;;;;;;;;;;4966942;28;20117;-65
2023/03/19 00:11:49;;;;;;;17.70;9.48;;;;;;;;;;4969396;28;20545;-65
2023/03/19 00:14:16;;;;;;;11.73;9.50;;;;;;;;;;4983477;28;20494;-68
2023/03/19 00:16:41;;;;;;;16.65;9.18;;;;;;;;;;4968431;28;20035;-65
2023/03/19 00:19:07;;;;;;;13.25;9.85;;;;;;;;;;4966449;28;20042;-65
2023/03/19 00:21:33;;;;;;;14.52;8.68;;;;;;;;;;4967919;28;20046;-66
2023/03/19 00:24:01;;;;;;;15.90;9.45;;;;;;;;;;4983742;28;20086;-65
2023/03/19 00:26:28;;;;;;;13.02;9.20;;;;;;;;;;4968227;28;20030;-65
2023/03/19 00:28:54;;;;;;;16.20;9.23;;;;;;;;;;4964756;28;20038;-65
2023/03/19 00:31:21;;;;;;;15.00;9.07;;;;;;;;;;4966865;28;20410;-65
2023/03/19 00:33:47;;;;;;;14.57;8.80;;;;;;;;;;4967644;28;20039;-65
2023/03/19 00:36:15;;;;;;;14.88;9.30;;;;;;;;;;4984301;28;20053;-68
2023/03/19 00:38:42;;;;;;;13.32;9.40;;;;;;;;;;4970616;28;20134;-65
2023/03/19 00:41:07;;;;;;;14.88;9.38;;;;;;;;;;4971834;28;20118;-67
2023/03/19 00:43:33;;;;;;;13.52;9.85;;;;;;;;;;4988215;28;20129;-67
2023/03/19 00:45:59;;;;;;;11.10;8.40;;;;;;;;;;4969777;28;20093;-67
2023/03/19 00:48:25;;;;;;;12.60;8.45;;;;;;;;;;4972631;28;20063;-65
2023/03/19 00:50:50;;;;;;;11.60;8.82;;;;;;;;;;4969880;28;20079;-65
2023/03/19 00:53:16;;;;;;;11.70;9.40;;;;;;;;;;4987676;28;20047;-65
2023/03/19 00:55:42;;;;;;;15.68;9.43;;;;;;;;;;4970064;28;20031;-65
2023/03/19 00:58:09;;;;;;;15.13;9.48;;;;;;;;;;4954948;28;20035;-67
2023/03/19 01:00:36;;;;;;;11.30;8.07;;;;;;;;;;4970687;28;20069;-66
2023/03/19 01:03:02;;;;;;;15.40;8.80;;;;;;;;;;4971654;28;20059;-65
2023/03/19 01:05:29;;;;;;;12.65;8.45;;;;;;;;;;4971229;28;20057;-66
2023/03/19 01:07:54;;;;;;;10.85;8.02;;;;;;;;;;4973533;28;20383;-65
2023/03/19 01:10:22;;;;;;;13.43;8.75;;;;;;;;;;4970770;28;20045;-65
2023/03/19 01:12:49;;;;;;;12.40;9.13;;;;;;;;;;4969126;28;20031;-66
2023/03/19 01:15:15;;;;;;;15.38;8.70;;;;;;;;;;4971248;28;20046;-66
2023/03/19 01:17:41;;;;;;;9.50;8.40;;;;;;;;;;4972949;28;20084;-68
2023/03/19 01:20:11;;;;;;;12.00;8.77;;;;;;;;;;4970482;28;20031;-65
2023/03/19 01:22:40;;;;;;;14.52;9.05;;;;;;;;;;4968331;28;20474;-68
2023/03/19 01:25:07;;;;;;;12.90;8.82;;;;;;;;;;4987519;28;20037;-65
2023/03/19 01:27:34;;;;;;;14.55;9.77;;;;;;;;;;4970697;28;20710;-65
2023/03/19 01:30:01;;;;;;;13.00;8.57;;;;;;;;;;4968227;28;20137;-65
2023/03/19 01:32:59;;;;;;;12.25;8.98;;;;;;;;;;4968882;28;20135;-65
2023/03/19 01:35:49;;;;;;;9.77;8.18;;;;;;;;;;4970863;28;20054;-65
2023/03/19 01:38:16;;;;;;;17.45;9.02;;;;;;;;;;4968348;28;20034;-65
2023/03/19 01:40:47;;;;;;;12.25;8.50;;;;;;;;;;4970158;28;20123;-65
2023/03/19 01:43:19;;;;;;;12.52;8.63;;;;;;;;;;4970317;28;20031;-65
2023/03/19 01:46:25;;;;;;;12.13;9.00;;;;;;;;;;4968856;28;20527;-67
2023/03/19 01:49:06;;;;;;;13.50;8.80;;;;;;;;;;4969792;28;20045;-65
2023/03/19 01:51:38;;;;;;;11.93;8.48;;;;;;;;;;4971656;28;20073;-65
2023/03/19 01:54:19;;;;;;;14.02;8.23;;;;;;;;;;4969643;28;20066;-67
2023/03/19 01:57:08;;;;;;;10.57;8.32;;;;;;;;;;4970259;28;20073;-65
2023/03/19 01:59:57;;;;;;;10.52;8.02;;;;;;;;;;4970846;28;20035;-67
2023/03/19 02:02:32;;;;;;;12.30;9.00;;;;;;;;;;4968944;28;20669;-67
2023/03/19 02:05:06;;;;;;;9.93;8.25;;;;;;;;;;4969055;28;20035;-67
2023/03/19 02:07:34;;;;;;;12.60;8.27;;;;;;;;;;4986242;28;20514;-67
2023/03/19 02:10:06;;;;;;;13.65;8.60;;;;;;;;;;4968083;28;20783;-67
2023/03/19 02:12:32;;;;;;;11.15;8.52;;;;;;;;;;4985043;28;20490;-67
2023/03/19 02:14:58;;;;;;;12.50;9.10;;;;;;;;;;4970421;28;20157;-66
2023/03/19 02:17:25;;;;;;;12.93;8.65;;;;;;;;;;4967857;28;20465;-68
2023/03/19 02:20:27;;;;;;;11.82;8.73;;;;;;;;;;4968920;28;20041;-67
2023/03/19 02:23:03;;;;;;;10.45;7.35;;;;;;;;;;4966942;28;20566;-67
2023/03/19 02:25:46;;;;;;;15.10;7.95;;;;;;;;;;4970464;28;20035;-67
2023/03/19 02:28:16;;;;;;;9.98;7.97;;;;;;;;;;4983973;28;20510;-67
2023/03/19 02:30:43;;;;;;;10.63;7.97;;;;;;;;;;4970551;28;20031;-65
2023/03/19 02:33:16;;;;;;;11.43;8.18;;;;;;;;;;4969094;28;20301;-65
2023/03/19 02:35:45;;;;;;;9.63;8.15;;;;;;;;;;4966103;28;20030;-67
2023/03/19 02:38:13;;;;;;;11.52;8.20;;;;;;;;;;4968032;28;20482;-67
2023/03/19 02:40:52;;;;;;;13.18;8.57;;;;;;;;;;4969258;28;20038;-65
2023/03/19 02:43:19;;;;;;;;;;;;;;;;;;4970435;28;20039;-65
2023/03/19 02:45:45;;;;;;;15.00;8.50;;;;;;;;;;4969246;28;20420;-67
2023/03/19 02:48:11;;;;;;;15.05;9.20;;;;;;;;;;4968976;28;20110;-67
2023/03/19 02:50:36;;;;;;;16.33;9.02;;;;;;;;;;4968487;28;20088;-65
2023/03/19 02:53:02;;;;;;;12.52;8.88;;;;;;;;;;4966968;28;20034;-66
2023/03/19 02:55:27;;;;;;;10.45;8.75;;;;;;;;;;4956742;28;20030;-65
2023/03/19 02:57:54;;;;;;;10.85;8.55;;;;;;;;;;4967619;28;20505;-65
2023/03/19 03:00:19;;;;;;;12.77;8.80;;;;;;;;;;4968539;28;20061;-66
2023/03/19 03:02:45;;;;;;;10.63;8.50;;;;;;;;;;4967205;28;20082;-65
2023/03/19 03:05:13;;;;;;;9.95;8.70;;;;;;;;;;4967722;28;20505;-65
2023/03/19 03:07:39;;;;;;;11.70;8.23;;;;;;;;;;4969264;28;20509;-64
2023/03/19 03:10:07;;;;;;;11.15;6.47;;;;;;;;;;4967177;28;20045;-66
2023/03/19 03:12:33;;;;;;;12.88;8.82;;;;;;;;;;4970556;28;20055;-64
2023/03/19 03:14:58;;;;;;;15.18;9.77;;;;;;;;;;4984642;28;20056;-66
2023/03/19 03:17:25;;;;;;;13.57;10.05;;;;;;;;;;4970346;28;20124;-63
2023/03/19 03:19:52;;;;;;;11.13;9.00;;;;;;;;;;4966744;28;20069;-64
2023/03/19 03:22:18;;;;;;;14.50;9.98;;;;;;;;;;4967247;28;20411;-63
2023/03/19 03:24:43;;;;;;;13.48;10.93;;;;;;;;;;4969504;28;20033;-67
2023/03/19 03:27:09;;;;;;;15.88;9.88;;;;;;;;;;4966195;28;20070;-64
2023/03/19 03:29:35;;;;;;;13.10;10.15;;;;;;;;;;4966770;28;20050;-63
2023/03/19 03:32:01;;;;;;;7.35;6.65;;;;;;;;;;4969579;28;20043;-64
2023/03/19 03:34:27;;;;;;;8.02;7.18;;;;;;;;;;4961098;28;20671;-64
2023/03/19 03:36:52;;;;;;;11.02;7.30;;;;;;;;;;4967847;28;20034;-66
2023/03/19 03:39:18;;;;;;;13.48;9.10;;;;;;;;;;4967609;28;20085;-66
2023/03/19 03:41:44;;;;;;;13.27;9.80;;;;;;;;;;4969347;28;20030;-64
2023/03/19 03:44:10;;;;;;;13.10;8.85;;;;;;;;;;4968581;28;20048;-65
2023/03/19 03:46:38;;;;;;;5.68;5.28;;;;;;;;;;4965670;28;20182;-66
2023/03/19 03:49:05;;;;;;;9.15;8.23;;;;;;;;;;4969715;28;20041;-65
2023/03/19 03:51:31;;;;;;;8.30;7.25;;;;;;;;;;4967079;28;20035;-64
2023/03/19 03:53:57;;;;;;;9.90;8.20;;;;;;;;;;4969502;28;20046;-64
2023/03/19 03:56:23;;;;;;;11.95;8.13;;;;;;;;;;4967514;28;20023;-64
2023/03/19 03:58:49;;;;;;;9.05;8.00;;;;;;;;;;4968042;28;20042;-64
2023/03/19 04:01:17;;;;;;;11.10;7.22;;;;;;;;;;4971575;28;20038;-64
2023/03/19 04:03:46;;;;;;;11.57;5.85;;;;;;;;;;4967174;28;20066;-64
2023/03/19 04:06:15;;;;;;;9.27;7.40;;;;;;;;;;4967754;28;20059;-64
2023/03/19 04:08:41;;;;;;;10.52;7.50;;;;;;;;;;4964583;28;20042;-65
2023/03/19 04:11:08;;;;;;;11.48;8.20;;;;;;;;;;4969815;28;20042;-64
2023/03/19 04:13:35;;;;;;;9.13;7.40;;;;;;;;;;4967918;28;20145;-64
2023/03/19 04:16:06;;;;;;;9.00;8.10;;;;;;;;;;4966255;28;20046;-64
2023/03/19 04:18:33;;;;;;;8.68;6.75;;;;;;;;;;4957820;28;20626;-66
2023/03/19 04:20:59;;;;;;;9.80;8.27;;;;;;;;;;4968159;28;20130;-66
2023/03/19 04:23:24;;;;;;;11.43;6.53;;;;;;;;;;4967725;28;20113;-66
2023/03/19 04:25:51;;;;;;;12.40;8.52;;;;;;;;;;4969542;28;20035;-66
2023/03/19 04:28:16;;;;;;;8.63;7.68;;;;;;;;;;4950013;28;20041;-66
2023/03/19 04:30:43;;;;;;;11.18;8.38;;;;;;;;;;4966933;28;20390;-66
2023/03/19 04:33:10;;;;;;;11.18;7.75;;;;;;;;;;4968836;28;20511;-64
2023/03/19 04:35:36;;;;;;;13.98;8.10;;;;;;;;;;4983953;28;20030;-64
2023/03/19 04:38:03;;;;;;;10.80;7.18;;;;;;;;;;4963657;28;20570;-64
2023/03/19 04:40:29;;;;;;;10.38;7.50;;;;;;;;;;4967154;28;20070;-64
2023/03/19 04:42:55;;;;;;;9.25;7.95;;;;;;;;;;4967170;28;20039;-67
2023/03/19 04:45:35;;;;;;;11.57;7.90;;;;;;;;;;4964882;28;20069;-64
2023/03/19 04:48:01;;;;;;;8.90;7.40;;;;;;;;;;4965853;28;20038;-65
2023/03/19 04:50:28;;;;;;;10.27;7.35;;;;;;;;;;4966880;28;20041;-66
2023/03/19 04:52:54;;;;;;;10.73;8.13;;;;;;;;;;4966910;28;20046;-66
2023/03/19 04:55:21;;;;;;;10.68;7.72;;;;;;;;;;4965842;28;20541;-66
2023/03/19 04:57:53;;;;;;;9.18;7.82;;;;;;;;;;4966974;28;20499;-66
2023/03/19 05:00:22;;;;;;;12.32;8.02;;;;;;;;;;4967749;28;20041;-65
2023/03/19 05:02:48;;;;;;;9.20;7.43;;;;;;;;;;4967258;28;20215;-63
2023/03/19 05:05:14;;;;;;;9.68;7.70;;;;;;;;;;4966502;28;20058;-64
2023/03/19 05:07:41;;;;;;;8.75;7.85;;;;;;;;;;4968332;28;20037;-64
2023/03/19 05:10:09;;;;;;;11.98;7.45;;;;;;;;;;4982262;28;20042;-66
2023/03/19 05:12:35;;;;;;;9.35;7.30;;;;;;;;;;4965144;28;20109;-66
2023/03/19 05:15:01;;;;;;;8.45;6.75;;;;;;;;;;4966815;28;20490;-66
2023/03/19 05:17:31;;;;;;;11.80;7.53;;;;;;;;;;4969273;28;20613;-65
2023/03/19 05:20:08;;;;;;;8.95;7.50;;;;;;;;;;4981155;28;20070;-65
2023/03/19 05:22:34;;;;;;;8.07;6.50;;;;;;;;;;4967357;28;20060;-65
2023/03/19 05:25:00;;;;;;;11.10;7.30;;;;;;;;;;4969504;28;20116;-65
2023/03/19 05:27:27;;;;;;;14.57;8.70;;;;;;;;;;4970731;28;20045;-66
2023/03/19 05:30:07;;;;;;;8.80;7.45;;;;;;;;;;4966477;28;20380;-66
2023/03/19 05:32:55;;;;;;;10.20;7.80;;;;;;;;;;4966513;28;20065;-66
2023/03/19 05:35:36;;;;;;;9.75;7.93;;;;;;;;;;4968480;28;20627;-66
2023/03/19 05:38:07;;;;;;;130.90;66.05;;;;;;;;;;4964682;28;20509;-66
2023/03/19 05:40:34;;;;;;;23.08;16.05;;;;;;;;;;4969153;28;20418;-66
2023/03/19 05:43:09;;;;;;;93.78;56.70;;;;;;;;;;4968796;28;20034;-65
2023/03/19 05:45:36;;;;;;;20.58;15.15;;;;;;;;;;4964941;28;20509;-65
2023/03/19 05:48:10;;;;;;;69.93;34.47;;;;;;;;;;4965321;28;20066;-65
2023/03/19 05:50:41;;;;;;;35.17;22.13;;;;;;;;;;4984176;28;20039;-65
2023/03/19 05:53:21;;;;;;;16.52;12.98;;;;;;;;;;4967482;28;20038;-65
2023/03/19 05:56:26;;;;;;;16.38;9.93;;;;;;;;;;4973937;28;20035;-65
2023/03/19 05:59:05;;;;;;;10.75;8.90;;;;;;;;;;4968035;28;20039;-65
2023/03/19 06:01:35;;;;;;;12.60;8.57;;;;;;;;;;4952728;28;20114;-65
2023/03/19 06:04:01;;;;;;;10.10;9.10;;;;;;;;;;4966355;28;20559;-65
2023/03/19 06:06:27;;;;;;;13.65;10.25;;;;;;;;;;4967492;28;20799;-65
2023/03/19 06:08:52;;;;;;;11.80;8.98;;;;;;;;;;4969661;28;20050;-65
2023/03/19 06:11:39;;;;;;;8.80;7.90;;;;;;;;;;4969308;28;20050;-65
2023/03/19 06:14:34;;;;;;;8.30;7.05;;;;;;;;;;4961487;28;20202;-66
2023/03/19 06:17:22;;;;;;;9.65;8.07;;;;;;;;;;4968872;28;20560;-65
2023/03/19 06:19:48;;;;;;;10.90;8.00;;;;;;;;;;4969068;28;20039;-65
2023/03/19 06:22:13;;;;;;;9.25;7.90;;;;;;;;;;4964943;28;20657;-65
2023/03/19 06:24:39;;;;;;;11.98;8.63;;;;;;;;;;4969590;28;20031;-65
2023/03/19 06:27:05;;;;;;;11.48;8.15;;;;;;;;;;4967046;28;20518;-65
2023/03/19 06:29:31;;;;;;;13.80;7.57;;;;;;;;;;4965283;28;20045;-64
2023/03/19 06:32:03;;;;;;;12.48;8.38;;;;;;;;;;4968046;28;20062;-65
2023/03/19 06:34:38;;;;;;;12.70;7.82;;;;;;;;;;4968529;28;20031;-65
2023/03/19 06:37:04;;;;;;;8.68;7.78;;;;;;;;;;4965507;28;20150;-65
2023/03/19 06:39:30;;;;;;;14.95;9.70;;;;;;;;;;4968119;28;20134;-66
2023/03/19 06:41:56;;;;;;;16.60;9.38;;;;;;;;;;4969992;28;20045;-65
2023/03/19 06:44:24;;;;;;;9.75;8.25;;;;;;;;;;4983530;28;20074;-65
2023/03/19 06:46:50;;;;;;;14.40;9.50;;;;;;;;;;4966424;28;20074;-65
2023/03/19 06:49:16;;;;;;;13.50;8.48;;;;;;;;;;4968639;28;20042;-65
2023/03/19 06:51:41;;;;;;;13.23;9.23;;;;;;;;;;4969634;28;20038;-65
2023/03/19 06:54:07;;;;;;;13.55;8.82;;;;;;;;;;4968842;28;20088;-65
2023/03/19 06:56:32;;;;;;;8.73;7.35;;;;;;;;;;4966353;28;20113;-64
2023/03/19 06:58:58;;;;;;;7.50;6.20;;;;;;;;;;4967424;28;20038;-65
2023/03/19 07:01:23;;;;;;;8.13;6.38;;;;;;;;;;4967753;28;20038;-65
2023/03/19 07:03:49;;;;;;;7.70;6.85;;;;;;;;;;4968498;28;20042;-66
2023/03/19 07:06:14;;;;;;;8.40;7.55;;;;;;;;;;4966393;28;20047;-65
2023/03/19 07:08:44;;;;;;;7.90;7.05;;;;;;;;;;4967236;28;20035;-65
2023/03/19 07:11:11;;;;;;;9.15;7.05;;;;;;;;;;4968370;28;20050;-66
2023/03/19 07:13:37;;;;;;;8.70;6.95;;;;;;;;;;4966972;28;20033;-65
2023/03/19 07:16:03;;;;;;;7.97;6.97;;;;;;;;;;4967341;28;20106;-65
2023/03/19 07:18:29;;;;;;;9.65;7.72;;;;;;;;;;4967881;28;20650;-65
2023/03/19 07:20:54;;;;;;;23.30;15.75;;;;;;;;;;4966874;28;20109;-65
2023/03/19 07:23:20;;;;;;;16.73;14.35;;;;;;;;;;4967515;28;20042;-65
2023/03/19 07:25:46;;;;;;;14.00;9.57;;;;;;;;;;4967322;28;20102;-65
2023/03/19 07:28:12;;;;;;;10.75;7.97;;;;;;;;;;4967691;28;20539;-65
2023/03/19 07:30:38;;;;;;;11.13;8.52;;;;;;;;;;4966283;28;20491;-65
2023/03/19 07:33:06;;;;;;;10.18;8.95;;;;;;;;;;4967230;28;20137;-65
2023/03/19 07:35:32;;;;;;;10.10;8.77;;;;;;;;;;4970121;28;20033;-66
2023/03/19 07:37:59;;;;;;;12.18;8.43;;;;;;;;;;4969609;28;20084;-65
2023/03/19 07:40:25;;;;;;;12.73;9.65;;;;;;;;;;4967224;28;20484;-65
2023/03/19 07:42:51;;;;;;;11.00;8.98;;;;;;;;;;4969248;28;20126;-65
2023/03/19 07:45:16;;;;;;;12.55;8.85;;;;;;;;;;4968240;28;20106;-65
2023/03/19 07:47:42;;;;;;;12.73;9.40;;;;;;;;;;4969499;28;20042;-65
2023/03/19 07:50:08;;;;;;;12.05;9.00;;;;;;;;;;4966242;28;20660;-65
2023/03/19 07:52:34;;;;;;;11.80;8.88;;;;;;;;;;4970256;28;20081;-65
2023/03/19 07:55:00;;;;;;;9.52;8.60;;;;;;;;;;4969067;28;20042;-65
2023/03/19 07:57:26;;;;;;;8.98;7.78;;;;;;;;;;4968256;28;20035;-65
2023/03/19 07:59:52;;;;;;;12.27;8.32;;;;;;;;;;4966434;28;20038;-65
2023/03/19 08:02:17;;;;;;;8.60;7.32;;;;;;;;;;4968427;28;20034;-65
2023/03/19 08:04:43;;;;;;;10.05;8.20;;;;;;;;;;4968927;28;20027;-65
2023/03/19 08:07:10;;;;;;;13.07;9.15;;;;;;;;;;4968874;28;20483;-65
2023/03/19 08:09:36;;;;;;;11.73;9.02;;;;;;;;;;4963798;28;20495;-65
2023/03/19 08:12:02;;;;;;;11.68;7.80;;;;;;;;;;4968004;28;20462;-65
2023/03/19 08:14:28;;;;;;;12.63;8.10;;;;;;;;;;4969757;28;20037;-65
2023/03/19 08:16:53;;;;;;;12.75;8.52;;;;;;;;;;4969186;28;20038;-65
2023/03/19 08:19:19;;;;;;;11.48;7.97;;;;;;;;;;4967331;28;20046;-65
2023/03/19 08:21:45;;;;;;;12.95;8.35;;;;;;;;;;4967384;28;20039;-65
2023/03/19 08:24:11;;;;;;;9.20;7.93;;;;;;;;;;4965901;28;20638;-65
2023/03/19 08:26:36;;;;;;;10.85;7.95;;;;;;;;;;4967964;28;20038;-65
2023/03/19 08:29:03;;;;;;;11.50;7.68;;;;;;;;;;4969310;28;20146;-65
2023/03/19 08:31:29;;;;;;;9.00;8.10;;;;;;;;;;4966148;28;20031;-65
2023/03/19 08:33:55;;;;;;;10.82;7.70;;;;;;;;;;4967581;28;20043;-65
2023/03/19 08:36:21;;;;;;;8.98;7.07;;;;;;;;;;4968178;28;20042;-65
2023/03/19 08:38:46;;;;;;;11.32;7.38;;;;;;;;;;4967834;28;20030;-65
2023/03/19 08:41:12;;;;;;;11.10;7.13;;;;;;;;;;4965779;28;20122;-65
2023/03/19 08:43:37;;;;;;;8.30;7.43;;;;;;;;;;4967708;28;20043;-65
2023/03/19 08:46:04;;;;;;;10.35;7.38;;;;;;;;;;4969012;28;20503;-66
2023/03/19 08:48:30;;;;;;;9.50;7.07;;;;;;;;;;4966510;28;20096;-65
2023/03/19 08:51:01;;;;;;;10.05;7.40;;;;;;;;;;4967498;28;20043;-65
2023/03/19 08:53:28;;;;;;;7.95;6.90;;;;;;;;;;4967207;28;20109;-65
2023/03/19 08:55:56;;;;;;;7.55;6.85;;;;;;;;;;4968858;28;20031;-66
2023/03/19 08:58:22;;;;;;;8.35;7.00;;;;;;;;;;4970823;28;20069;-65
2023/03/19 09:00:48;;;;;;;7.40;6.70;;;;;;;;;;4971310;28;20026;-65
2023/03/19 09:03:15;;;;;;;11.98;6.65;;;;;;;;;;4972159;28;20039;-65
2023/03/19 09:05:40;;;;;;;7.68;6.88;;;;;;;;;;4970835;28;20105;-66
2023/03/19 09:08:06;;;;;;;9.00;6.88;;;;;;;;;;4970115;28;20038;-66
2023/03/19 09:10:32;;;;;;;9.73;6.45;;;;;;;;;;4986917;28;20037;-66
2023/03/19 09:12:58;;;;;;;7.15;6.45;;;;;;;;;;4971687;28;20030;-65
2023/03/19 09:15:25;;;;;;;7.57;6.65;;;;;;;;;;4970274;28;20035;-65
2023/03/19 09:17:51;;;;;;;8.40;6.53;;;;;;;;;;4971010;28;20041;-65
2023/03/19 09:20:16;;;;;;;7.60;6.80;;;;;;;;;;4971467;28;20035;-65
2023/03/19 09:22:42;;;;;;;9.70;6.45;;;;;;;;;;4971160;28;20035;-65
2023/03/19 09:25:08;;;;;;;9.07;6.18;;;;;;;;;;4969168;28;20031;-65
2023/03/19 09:27:34;;;;;;;8.93;6.25;;;;;;;;;;4971346;28;20041;-65
2023/03/19 09:29:59;;;;;;;8.23;6.80;;;;;;;;;;4971418;28;20042;-66
2023/03/19 09:32:25;;;;;;;8.88;6.55;;;;;;;;;;4971713;28;20101;-66
2023/03/19 09:34:50;;;;;;;7.20;6.50;;;;;;;;;;4968496;28;20035;-66
2023/03/19 09:37:16;;;;;;;8.75;6.15;;;;;;;;;;4970019;28;20035;-66
2023/03/19 09:39:41;;;;;;;7.53;5.97;;;;;;;;;;4970023;28;20062;-66
2023/03/19 09:42:49;;;;;;;6.97;6.32;;;;;;;;;;4969026;28;20046;-66
2023/03/19 09:45:17;;;;;;;10.00;6.40;;;;;;;;;;4967703;28;20078;-66
2023/03/19 09:47:45;;;;;;;6.40;5.80;;;;;;;;;;4970324;28;20046;-66
2023/03/19 09:50:18;;;;;;;7.93;5.80;;;;;;;;;;4975514;28;20035;-66
2023/03/19 09:53:00;;;;;;;5.85;4.90;;;;;;;;;;4975295;28;20630;-66
2023/03/19 09:55:31;;;;;;;5.93;5.07;;;;;;;;;;4975680;28;20389;-66
2023/03/19 09:57:57;;;;;;;5.40;4.90;;;;;;;;;;4987597;28;20565;-66
2023/03/19 10:00:26;;;;;;;7.25;5.30;;;;;;;;;;4970539;28;20061;-66
2023/03/19 10:03:11;;;;;;;6.90;5.18;;;;;;;;;;4970203;28;20045;-66
2023/03/19 10:05:44;;;;;;;8.43;5.10;;;;;;;;;;4973624;28;20122;-66
2023/03/19 10:08:28;;;;;;;6.20;4.88;;;;;;;;;;4968912;28;20657;-66
2023/03/19 10:10:57;;;;;;;6.10;5.50;;;;;;;;;;4970866;28;20039;-66
2023/03/19 10:13:22;;;;;;;5.40;4.80;;;;;;;;;;4973147;28;20034;-66
2023/03/19 10:15:51;;;;;;;5.53;4.90;;;;;;;;;;4970454;28;20390;-66
2023/03/19 10:18:34;;;;;;;5.20;4.72;;;;;;;;;;4968185;28;20562;-66
2023/03/19 10:21:02;;;;;;;5.88;4.53;;;;;;;;;;4969513;28;20402;-66
2023/03/19 10:23:36;;;;;;;7.78;5.15;;;;;;;;;;4970325;28;20093;-66
2023/03/19 10:26:04;;;;;;;4.95;4.47;;;;;;;;;;4972792;28;20078;-66
2023/03/19 10:28:30;;;;;;;6.07;4.85;;;;;;;;;;4968524;28;20069;-66
2023/03/19 10:31:17;;;;;;;5.47;4.22;;;;;;;;;;4948692;28;20105;-65
2023/03/19 10:33:49;;;;;;;5.60;4.65;;;;;;;;;;4960789;28;20794;-66
2023/03/19 10:36:19;;;;;;;5.05;4.50;;;;;;;;;;4967722;28;20049;-66
2023/03/19 10:38:44;;;;;;;4.50;4.07;;;;;;;;;;4959875;28;20493;-66
2023/03/19 10:41:48;;;;;;;3.97;3.67;;;;;;;;;;4964670;28;20556;-67
2023/03/19 10:44:42;;;;;;;8.73;4.10;;;;;;;;;;4964612;28;20437;-67
2023/03/19 10:47:13;;;;;;;3.90;3.60;;;;;;;;;;4977442;28;20050;-66
2023/03/19 10:49:40;;;;;;;4.57;4.18;;;;;;;;;;4962535;28;20214;-66
2023/03/19 10:52:18;;;;;;;4.90;4.22;;;;;;;;;;4963735;28;20034;-67
2023/03/19 10:54:45;;;;;;;4.70;4.00;;;;;;;;;;4964013;28;20035;-67
2023/03/19 10:57:25;;;;;;;5.15;3.90;;;;;;;;;;4963113;28;20039;-67
2023/03/19 10:59:51;;;;;;;4.70;4.30;;;;;;;;;;4962588;28;20038;-65
2023/03/19 11:02:20;;;;;;;5.32;4.20;;;;;;;;;;4964323;28;20039;-66
2023/03/19 11:04:45;;;;;;;4.43;3.70;;;;;;;;;;4963439;28;20092;-66
2023/03/19 11:07:16;;;;;;;4.15;3.53;;;;;;;;;;4961323;28;20046;-67
2023/03/19 11:09:47;;;;;;;7.97;3.83;;;;;;;;;;4964755;28;20146;-67
2023/03/19 11:12:23;;;;;;;5.07;4.10;;;;;;;;;;4966902;28;20041;-67
2023/03/19 11:14:55;;;;;;;4.63;4.22;;;;;;;;;;4962760;28;20565;-67
2023/03/19 11:17:25;;;;;;;4.35;3.95;;;;;;;;;;4962584;28;20050;-66
2023/03/19 11:19:56;;;;;;;4.60;4.20;;;;;;;;;;4963401;28;20069;-66
2023/03/19 11:22:34;;;;;;;4.90;4.15;;;;;;;;;;4962797;28;20101;-67
2023/03/19 11:25:02;;;;;;;4.63;3.72;;;;;;;;;;4962515;28;20062;-66
2023/03/19 11:27:33;;;;;;;3.90;3.60;;;;;;;;;;4964064;28;20125;-66
2023/03/19 11:30:03;;;;;;;5.70;4.00;;;;;;;;;;4964608;28;20022;-67
2023/03/19 11:33:11;;;;;;;4.07;3.72;;;;;;;;;;4962291;28;20053;-67
2023/03/19 11:36:04;;;;;;;4.38;3.97;;;;;;;;;;4958626;28;20193;-66
2023/03/19 11:38:47;;;;;;;5.35;4.10;;;;;;;;;;4966730;28;20046;-66
2023/03/19 11:41:25;;;;;;;3.80;3.50;;;;;;;;;;4959135;28;20817;-67
2023/03/19 11:44:39;;;;;;;5.57;4.03;;;;;;;;;;4963313;28;20035;-66
2023/03/19 11:47:34;;;;;;;4.15;3.80;;;;;;;;;;4946839;28;20062;-66
2023/03/19 11:50:19;;;;;;;5.38;3.65;;;;;;;;;;4930725;28;20087;-66
2023/03/19 11:53:17;;;;;;;4.65;4.25;;;;;;;;;;4940922;28;20058;-66
2023/03/19 11:56:00;;;;;;;5.78;3.80;;;;;;;;;;4941150;28;20522;-66
2023/03/19 11:58:56;;;;;;;4.00;3.60;;;;;;;;;;4942259;28;20116;-65
2023/03/19 12:01:48;;;;;;;4.22;3.88;;;;;;;;;;4944286;28;20158;-66
2023/03/19 12:04:41;;;;;;;6.78;4.03;;;;;;;;;;4940326;28;20158;-66
2023/03/19 12:07:28;;;;;;;4.00;3.70;;;;;;;;;;4907741;29;20046;-66
2023/03/19 12:10:20;;;;;;;5.10;4.20;;;;;;;;;;4941765;28;20047;-65
2023/03/19 12:12:57;;;;;;;4.70;4.20;;;;;;;;;;4942487;28;20047;-66
2023/03/19 12:15:54;;;;;;;6.88;4.20;;;;;;;;;;4940669;28;20649;-66
2023/03/19 12:18:42;;;;;;;4.53;4.10;;;;;;;;;;4940396;28;20732;-65
2023/03/19 12:21:26;;;;;;;4.40;4.00;;;;;;;;;;4936470;28;20466;-66
2023/03/19 12:24:22;;;;;;;5.07;3.58;;;;;;;;;;4948231;28;20097;-66
2023/03/19 12:27:24;;;;;;;4.65;4.25;;;;;;;;;;4958135;28;20046;-67
2023/03/19 12:30:12;;;;;;;4.68;3.90;;;;;;;;;;4956544;28;20065;-66
2023/03/19 12:32:52;;;;;;;4.50;4.10;;;;;;;;;;4944615;28;20051;-69
2023/03/19 12:35:25;;;;;;;4.32;3.92;;;;;;;;;;4963595;28;20592;-67
2023/03/19 12:38:02;;;;;;;4.18;3.80;;;;;;;;;;4961221;28;20054;-66
2023/03/19 12:40:42;;;;;;;6.30;4.10;;;;;;;;;;4962714;28;20491;-69
2023/03/19 12:43:25;;;;;;;6.20;4.30;;;;;;;;;;4964446;28;20170;-68
2023/03/19 12:46:02;;;;;;;6.28;4.10;;;;;;;;;;4946414;28;20089;-66
2023/03/19 12:48:34;;;;;;;4.22;3.83;;;;;;;;;;4962778;28;20042;-66
2023/03/19 12:51:08;;;;;;;4.43;4.03;;;;;;;;;;4963960;28;20043;-66
2023/03/19 12:53:49;;;;;;;4.30;4.00;;;;;;;;;;4962543;28;20122;-66
2023/03/19 12:56:47;;;;;;;4.35;4.05;;;;;;;;;;4964254;28;20062;-66
2023/03/19 12:59:28;;;;;;;5.45;4.45;;;;;;;;;;4965394;28;20131;-66
2023/03/19 13:02:23;;;;;;;4.68;3.97;;;;;;;;;;4965638;28;20133;-66
2023/03/19 13:04:54;;;;;;;4.38;3.90;;;;;;;;;;4962369;28;20039;-66
2023/03/19 13:07:33;;;;;;;4.30;3.90;;;;;;;;;;4964142;28;20043;-66
2023/03/19 13:10:05;;;;;;;5.28;4.80;;;;;;;;;;4958884;28;20038;-65
2023/03/19 13:12:36;;;;;;;5.07;3.78;;;;;;;;;;4958931;28;20038;-68
2023/03/19 13:15:11;;;;;;;4.53;3.90;;;;;;;;;;4962878;28;20668;-65
2023/03/19 13:18:03;;;;;;;4.30;3.90;;;;;;;;;;4966675;28;20146;-66
2023/03/19 13:21:06;;;;;;;4.68;3.78;;;;;;;;;;4964147;28;20061;-67
2023/03/19 13:23:35;;;;;;;6.78;4.60;;;;;;;;;;4959140;28;20118;-68
2023/03/19 13:26:03;;;;;;;4.65;4.25;;;;;;;;;;4965673;28;20041;-66
2023/03/19 13:28:36;;;;;;;4.97;4.25;;;;;;;;;;4961965;28;20039;-67
2023/03/19 13:31:19;;;;;;;4.70;4.00;;;;;;;;;;4960069;28;20057;-67
2023/03/19 13:34:05;;;;;;;4.45;4.05;;;;;;;;;;4959894;28;20077;-68
2023/03/19 13:36:37;;;;;;;4.75;4.35;;;;;;;;;;4961695;28;20469;-68
2023/03/19 13:39:08;;;;;;;5.20;4.07;;;;;;;;;;4963746;28;20120;-68
2023/03/19 13:41:34;;;;;;;5.38;4.13;;;;;;;;;;4961068;28;20034;-67
2023/03/19 13:44:20;;;;;;;4.38;3.97;;;;;;;;;;4961679;28;20047;-67
2023/03/19 13:46:47;;;;;;;5.07;4.07;;;;;;;;;;4962238;28;20042;-68
2023/03/19 13:49:12;;;;;;;4.40;4.10;;;;;;;;;;4961207;28;20030;-67
2023/03/19 13:51:38;;;;;;;4.28;3.88;;;;;;;;;;4969316;28;20045;-68
2023/03/19 13:54:21;;;;;;;5.78;4.07;;;;;;;;;;4965773;28;20059;-68
2023/03/19 13:57:00;;;;;;;4.32;4.03;;;;;;;;;;4966235;28;20642;-68
2023/03/19 13:59:46;;;;;;;4.37;3.87;;;;;;;;;;4963889;28;20534;-67
2023/03/19 14:02:20;;;;;;;6.93;4.05;;;;;;;;;;4963207;28;20348;-67
2023/03/19 14:04:55;;;;;;;8.82;4.15;;;;;;;;;;4966541;28;20041;-67
2023/03/19 14:07:25;;;;;;;4.82;4.00;;;;;;;;;;4961704;28;20035;-67
2023/03/19 14:09:57;;;;;;;4.80;4.40;;;;;;;;;;4965262;28;20054;-68
2023/03/19 14:12:30;;;;;;;4.65;4.25;;;;;;;;;;4964661;28;20075;-67
2023/03/19 14:15:22;;;;;;;4.60;4.20;;;;;;;;;;4966682;28;20054;-68
2023/03/19 14:18:01;;;;;;;5.20;4.10;;;;;;;;;;4962944;28;20114;-67
2023/03/19 14:20:43;;;;;;;4.22;3.92;;;;;;;;;;4964504;28;20038;-67
2023/03/19 14:23:08;;;;;;;4.63;4.25;;;;;;;;;;4959413;28;20049;-67
2023/03/19 14:26:15;;;;;;;5.85;4.20;;;;;;;;;;4964178;28;20035;-67
2023/03/19 14:28:43;;;;;;;5.13;4.35;;;;;;;;;;4957481;28;21229;-67
2023/03/19 14:31:37;;;;;;;4.25;3.85;;;;;;;;;;4959456;28;20031;-68
2023/03/19 14:34:12;;;;;;;4.68;4.28;;;;;;;;;;4969705;28;20055;-67
2023/03/19 14:36:43;;;;;;;4.30;3.90;;;;;;;;;;4973388;28;20249;-68
2023/03/19 14:39:08;;;;;;;5.20;3.88;;;;;;;;;;4961778;28;20041;-67
2023/03/19 14:41:41;;;;;;;4.28;3.88;;;;;;;;;;4963892;28;20034;-68
2023/03/19 14:44:59;;;;;;;4.40;4.10;;;;;;;;;;4964405;28;20125;-68
2023/03/19 14:47:43;;;;;;;4.10;3.80;;;;;;;;;;4945399;28;20047;-68
2023/03/19 14:50:37;;;;;;;3.90;3.67;;;;;;;;;;4962201;28;20038;-67
2023/03/19 14:53:40;;;;;;;3.95;3.65;;;;;;;;;;4967561;28;20217;-68
2023/03/19 14:56:34;;;;;;;4.80;3.92;;;;;;;;;;4961082;28;20034;-67
2023/03/19 14:59:05;;;;;;;4.45;4.05;;;;;;;;;;4957558;28;20564;-67
2023/03/19 15:01:35;;;;;;;4.38;3.90;;;;;;;;;;4960207;28;20047;-67
2023/03/19 15:04:07;;;;;;;4.30;4.00;;;;;;;;;;4960283;28;20046;-68
2023/03/19 15:06:37;;;;;;;5.40;4.90;;;;;;;;;;4971308;28;20486;-67